Time;durP1;ratioP1;P1;durP2;ratioP2;P2;SDS_P1;SDS_P2;PMS_P1;PMS_P2;Temp;Humidity;BMP_temperature;BMP_pressure;BME280_temperature;BME280_humidity;BME280_pressure;Samples;Min_cycle;Max_cycle;Signal;HPM_P1;HPM_P2
2022/06/16 00:01:43;;;;;;;3.40;3.00;;;27.00;59.20;;;;;;4996784;28;20539;-71
2022/06/16 00:04:09;;;;;;;3.77;3.00;;;27.00;59.20;;;;;;5005212;28;20441;-71
2022/06/16 00:06:35;;;;;;;3.30;3.10;;;27.00;59.20;;;;;;4977422;28;20421;-71
2022/06/16 00:09:04;;;;;;;3.60;3.30;;;27.00;59.20;;;;;;4995903;28;20527;-71
2022/06/16 00:11:37;;;;;;;3.43;3.13;;;27.00;59.20;;;;;;4995021;28;20462;-71
2022/06/16 00:14:03;;;;;;;3.57;3.07;;;26.90;59.20;;;;;;4993170;28;20421;-71
2022/06/16 00:16:33;;;;;;;4.00;3.23;;;26.90;59.20;;;;;;4993722;28;20934;-71
2022/06/16 00:19:03;;;;;;;3.40;3.10;;;26.90;59.20;;;;;;5012923;28;20480;-71
2022/06/16 00:21:32;;;;;;;3.50;3.00;;;26.90;59.20;;;;;;5013075;28;20474;-71
2022/06/16 00:23:59;;;;;;;4.77;2.90;;;26.80;59.20;;;;;;5007053;28;20461;-71
2022/06/16 00:26:26;;;;;;;2.97;2.77;;;26.80;59.10;;;;;;4993031;28;20449;-71
2022/06/16 00:28:53;;;;;;;6.00;3.10;;;26.80;59.20;;;;;;5009966;28;20432;-71
2022/06/16 00:31:23;;;;;;;4.07;2.97;;;26.80;59.20;;;;;;4993081;28;20492;-71
2022/06/16 00:33:54;;;;;;;3.07;2.77;;;26.80;59.10;;;;;;4980420;28;20507;-71
2022/06/16 00:36:24;;;;;;;3.73;3.00;;;26.70;59.00;;;;;;5012565;28;20427;-71
2022/06/16 00:38:53;;;;;;;4.40;2.90;;;26.70;59.00;;;;;;4978395;28;20479;-71
2022/06/16 00:41:21;;;;;;;5.33;3.40;;;26.70;59.00;;;;;;4988000;28;20468;-71
2022/06/16 00:43:47;;;;;;;4.53;3.10;;;26.70;59.00;;;;;;4979509;28;20455;-71
2022/06/16 00:46:17;;;;;;;4.03;3.13;;;26.70;59.10;;;;;;5012379;28;20859;-71
2022/06/16 00:48:50;;;;;;;3.53;3.33;;;26.60;59.10;;;;;;5011267;28;20905;-71
2022/06/16 00:51:25;;;;;;;3.87;3.10;;;26.60;59.00;;;;;;5013328;28;20795;-71
2022/06/16 00:53:56;;;;;;;3.37;3.13;;;26.60;59.10;;;;;;5001897;28;20527;-71
2022/06/16 00:56:22;;;;;;;3.73;3.23;;;26.60;59.10;;;;;;4996132;28;20423;-71
2022/06/16 00:58:56;;;;;;;2.87;2.67;;;26.50;59.10;;;;;;4991421;28;20849;-71
2022/06/16 01:01:25;;;;;;;4.63;3.37;;;26.50;59.10;;;;;;4984798;28;20479;-71
2022/06/16 01:06:45;;;;;;;3.90;2.70;;;26.50;59.00;;;;;;4981898;28;20468;-71
2022/06/16 01:09:21;;;;;;;5.40;3.40;;;26.40;58.90;;;;;;5012022;28;20409;-71
2022/06/16 01:15:25;;;;;;;3.07;2.73;;;26.40;58.90;;;;;;5011266;28;20793;-71
2022/06/16 01:17:59;;;;;;;3.60;3.10;;;26.40;59.00;;;;;;5011904;28;20503;-71
2022/06/16 01:20:46;;;;;;;6.73;3.43;;;26.40;59.00;;;;;;4994858;28;20416;-71
2022/06/16 01:23:41;;;;;;;5.13;2.90;;;26.30;59.00;;;;;;4987976;28;20496;-71
2022/06/16 01:26:20;;;;;;;3.20;2.90;;;26.30;59.10;;;;;;4975972;28;20553;-71
2022/06/16 01:29:17;;;;;;;4.20;3.37;;;26.30;59.00;;;;;;5011842;28;20451;-71
2022/06/16 01:32:11;;;;;;;5.20;3.60;;;26.30;59.00;;;;;;5008492;28;20802;-71
2022/06/16 01:35:06;;;;;;;4.27;3.33;;;26.20;58.90;;;;;;4959731;28;20825;-71
2022/06/16 01:38:04;;;;;;;3.53;2.90;;;26.20;59.00;;;;;;4982800;28;20490;-71
2022/06/16 01:41:13;;;;;;;3.70;3.40;;;26.20;58.90;;;;;;5010551;28;20537;-71
2022/06/16 01:43:54;;;;;;;5.20;3.10;;;26.10;58.90;;;;;;4990803;28;20962;-71
2022/06/16 01:46:31;;;;;;;3.40;3.10;;;26.10;58.90;;;;;;4975451;28;20414;-71
2022/06/16 01:49:17;;;;;;;4.80;3.27;;;26.10;59.00;;;;;;4981006;28;20428;-71
2022/06/16 01:52:14;;;;;;;4.07;2.97;;;26.10;59.00;;;;;;4993310;28;20543;-71
2022/06/16 01:54:45;;;;;;;3.50;2.70;;;26.10;59.00;;;;;;5001367;28;20520;-71
2022/06/16 01:57:23;;;;;;;3.60;2.80;;;26.00;58.90;;;;;;4975720;28;20417;-71
2022/06/16 02:00:03;;;;;;;3.20;2.97;;;26.00;59.00;;;;;;4986367;28;20507;-71
2022/06/16 02:02:33;;;;;;;4.17;3.20;;;26.00;59.00;;;;;;5010943;28;20859;-71
2022/06/16 02:05:21;;;;;;;4.50;3.10;;;26.00;58.80;;;;;;5012000;28;20414;-71
2022/06/16 02:07:55;;;;;;;3.53;3.23;;;26.00;58.80;;;;;;5011246;28;20427;-71
2022/06/16 02:10:31;;;;;;;3.47;2.97;;;25.90;58.80;;;;;;5010982;28;20448;-71
2022/06/16 02:13:05;;;;;;;5.23;3.20;;;25.90;58.80;;;;;;5005275;28;20586;-71
2022/06/16 02:15:55;;;;;;;5.80;2.83;;;25.90;58.70;;;;;;4993935;28;20446;-71
2022/06/16 02:18:24;;;;;;;3.40;3.10;;;25.90;58.80;;;;;;4975366;28;20521;-71
2022/06/16 02:21:04;;;;;;;4.67;3.07;;;25.80;58.70;;;;;;4976894;28;20467;-71
2022/06/16 02:23:34;;;;;;;4.40;3.07;;;25.80;58.70;;;;;;4994894;28;20420;-71
2022/06/16 02:26:03;;;;;;;3.23;2.80;;;25.80;58.70;;;;;;5008920;28;20913;-71
2022/06/16 02:28:42;;;;;;;4.37;3.30;;;25.80;58.80;;;;;;4991491;28;20393;-71
2022/06/16 02:31:32;;;;;;;3.50;2.90;;;25.80;58.70;;;;;;5009879;28;20436;-71
2022/06/16 02:34:34;;;;;;;3.87;3.57;;;25.70;58.70;;;;;;4977149;28;20485;-71
2022/06/16 02:37:11;;;;;;;3.50;2.80;;;25.70;58.50;;;;;;4948352;28;20472;-71
2022/06/16 02:40:03;;;;;;;2.90;2.60;;;25.70;58.50;;;;;;4976722;28;21044;-71
2022/06/16 02:42:43;;;;;;;3.77;3.03;;;25.70;58.50;;;;;;4993665;28;20503;-71
2022/06/16 02:45:22;;;;;;;3.13;2.70;;;25.60;58.50;;;;;;4996899;28;20480;-71
2022/06/16 02:48:07;;;;;;;6.37;3.03;;;25.60;58.50;;;;;;4994836;28;20428;-71
2022/06/16 02:50:52;;;;;;;2.90;2.60;;;25.60;58.40;;;;;;5010685;28;20418;-71
2022/06/16 02:56:19;;;;;;;3.30;2.80;;;25.60;58.50;;;;;;4991614;28;20812;-71
2022/06/16 02:58:50;;;;;;;4.17;3.00;;;25.50;58.40;;;;;;4976114;28;20950;-71
2022/06/16 03:01:20;;;;;;;3.80;2.90;;;25.50;58.30;;;;;;4994689;28;20527;-71
2022/06/16 03:06:44;;;;;;;5.03;3.23;;;25.50;58.40;;;;;;4995848;28;20493;-87
2022/06/16 03:09:11;;;;;;;3.43;2.53;;;25.40;58.30;;;;;;4981525;28;20431;-91
2022/06/16 03:11:38;;;;;;;3.00;2.70;;;25.40;58.30;;;;;;4965757;28;20425;-90
2022/06/16 03:14:11;;;;;;;4.60;2.80;;;25.40;58.30;;;;;;4965472;28;20495;-89
2022/06/16 03:16:42;;;;;;;3.73;2.80;;;25.40;58.30;;;;;;4946437;28;20496;-89
2022/06/16 03:19:08;;;;;;;3.77;2.80;;;25.40;58.20;;;;;;4946219;28;20474;-88
2022/06/16 03:21:39;;;;;;;3.93;2.67;;;25.40;58.20;;;;;;4950517;28;20458;-90
2022/06/16 03:24:08;;;;;;;4.20;2.93;;;25.30;58.20;;;;;;4930819;28;20906;-90
2022/06/16 03:26:34;;;;;;;4.13;2.70;;;25.30;58.20;;;;;;4946820;28;20442;-90
2022/06/16 03:29:00;;;;;;;3.97;2.60;;;25.30;58.20;;;;;;4946207;28;20884;-90
2022/06/16 03:31:29;;;;;;;3.73;2.83;;;25.30;58.20;;;;;;4964450;28;20917;-89
2022/06/16 03:33:58;;;;;;;3.70;3.00;;;25.20;58.10;;;;;;4966120;28;20477;-88
2022/06/16 03:36:32;;;;;;;3.40;2.63;;;25.20;58.10;;;;;;4981048;28;20437;-89
2022/06/16 03:39:01;;;;;;;3.50;2.90;;;25.20;58.20;;;;;;4965086;28;20460;-90
2022/06/16 03:41:29;;;;;;;3.87;2.70;;;25.20;58.10;;;;;;4966380;28;20482;-90
2022/06/16 03:44:00;;;;;;;3.67;2.83;;;25.20;58.70;;;;;;4946435;28;20418;-90
2022/06/16 03:46:27;;;;;;;2.93;2.50;;;25.10;58.10;;;;;;4945938;28;20517;-89
2022/06/16 03:49:04;;;;;;;3.70;3.03;;;25.10;58.00;;;;;;4964059;28;20460;-90
2022/06/16 03:51:53;;;;;;;3.30;2.93;;;25.10;58.10;;;;;;4988621;28;20791;-87
2022/06/16 03:54:23;;;;;;;5.00;2.93;;;25.10;58.10;;;;;;4961968;28;20414;-89
2022/06/16 03:56:57;;;;;;;5.10;3.63;;;25.00;58.10;;;;;;4961341;28;20780;-90
2022/06/16 03:59:28;;;;;;;4.07;3.13;;;25.00;58.10;;;;;;4949324;28;20537;-93
2022/06/16 04:02:00;;;;;;;5.50;3.50;;;25.00;58.10;;;;;;4961626;28;20475;-90
2022/06/16 04:04:33;;;;;;;2.83;2.50;;;25.00;58.10;;;;;;4961442;28;20465;-89
2022/06/16 04:07:02;;;;;;;3.63;2.73;;;25.00;58.10;;;;;;4961691;28;20536;-88
2022/06/16 04:09:31;;;;;;;2.67;2.40;;;24.90;58.00;;;;;;4961644;28;20507;-90
2022/06/16 04:12:00;;;;;;;4.33;2.83;;;24.90;58.00;;;;;;4956220;28;20433;-90
2022/06/16 04:14:29;;;;;;;3.10;2.77;;;24.90;58.00;;;;;;4981059;28;20784;-89
2022/06/16 04:17:01;;;;;;;3.03;2.70;;;24.90;58.00;;;;;;4980722;28;20524;-89
2022/06/16 04:19:35;;;;;;;3.50;2.57;;;24.90;58.00;;;;;;4974015;28;20518;-89
2022/06/16 04:22:02;;;;;;;5.63;2.70;;;24.90;58.00;;;;;;4945598;28;20811;-88
2022/06/16 04:24:40;;;;;;;2.63;2.47;;;24.80;58.00;;;;;;4969244;28;20421;-90
2022/06/16 04:27:09;;;;;;;2.80;2.40;;;24.80;58.00;;;;;;4980788;28;20417;-90
2022/06/16 04:29:37;;;;;;;2.97;2.63;;;24.80;58.00;;;;;;4957135;28;20785;-90
2022/06/16 04:32:06;;;;;;;3.30;2.30;;;24.70;58.00;;;;;;4956793;28;20438;-90
2022/06/16 04:34:44;;;;;;;3.27;2.70;;;24.70;58.00;;;;;;4974713;28;20433;-90
2022/06/16 04:37:14;;;;;;;2.80;2.43;;;24.70;58.00;;;;;;4955348;28;20583;-90
2022/06/16 04:39:43;;;;;;;2.73;2.53;;;24.70;58.00;;;;;;4961451;28;20418;-89
2022/06/16 04:42:14;;;;;;;2.73;2.53;;;24.70;58.10;;;;;;4973171;28;20481;-87
2022/06/16 04:44:40;;;;;;;3.43;2.60;;;24.70;58.10;;;;;;4971691;28;20446;-89
2022/06/16 04:47:09;;;;;;;2.40;2.00;;;24.70;58.20;;;;;;4976884;28;20442;-89
2022/06/16 04:49:37;;;;;;;3.20;2.90;;;24.70;58.20;;;;;;4977744;28;20473;-90
2022/06/16 04:52:05;;;;;;;3.13;2.47;;;24.60;58.10;;;;;;4953744;28;20504;-87
2022/06/16 04:54:37;;;;;;;3.03;2.63;;;24.60;58.10;;;;;;4970930;28;20464;-90
2022/06/16 04:57:38;;;;;;;2.83;2.43;;;24.60;58.10;;;;;;4978823;28;20436;-88
2022/06/16 05:00:16;;;;;;;3.03;2.70;;;24.60;58.20;;;;;;4976754;28;20798;-90
2022/06/16 05:03:05;;;;;;;3.17;2.60;;;24.50;58.00;;;;;;4952220;28;20478;-88
2022/06/16 05:05:47;;;;;;;3.30;2.53;;;24.50;58.10;;;;;;4975825;28;20452;-88
2022/06/16 05:08:23;;;;;;;3.87;2.60;;;24.50;58.20;;;;;;4957487;28;20440;-91
2022/06/16 05:10:55;;;;;;;3.00;2.20;;;24.50;58.20;;;;;;4959852;28;20462;-86
2022/06/16 05:13:55;;;;;;;3.70;2.60;;;24.50;58.20;;;;;;4964111;28;20457;-86
2022/06/16 05:17:00;;;;;;;2.60;2.20;;;24.50;58.20;;;;;;4983129;28;20960;-89
2022/06/16 05:19:51;;;;;;;4.30;3.30;;;24.40;58.20;;;;;;4989423;28;20449;-90
2022/06/16 05:22:35;;;;;;;5.23;2.97;;;24.40;58.20;;;;;;4973247;28;20476;-88
2022/06/16 05:25:35;;;;;;;3.33;2.60;;;24.40;58.20;;;;;;4938409;28;20442;-87
2022/06/16 05:28:10;;;;;;;4.33;2.73;;;24.40;58.20;;;;;;4949623;28;20433;-86
2022/06/16 05:31:03;;;;;;;2.70;2.50;;;24.40;58.20;;;;;;4961093;28;20422;-87
2022/06/16 05:33:49;;;;;;;3.00;2.13;;;24.30;58.10;;;;;;4984482;28;20413;-89
2022/06/16 05:36:35;;;;;;;5.47;2.33;;;24.30;58.20;;;;;;4972586;28;20501;-88
2022/06/16 05:39:26;;;;;;;4.57;2.60;;;24.30;58.20;;;;;;4973350;28;20445;-90
2022/06/16 05:42:32;;;;;;;2.83;2.60;;;24.30;58.20;;;;;;4991665;28;20465;-89
2022/06/16 05:45:14;;;;;;;2.57;2.30;;;24.30;58.20;;;;;;4979693;28;20467;-88
2022/06/16 05:47:59;;;;;;;2.70;2.27;;;24.30;58.20;;;;;;4972683;28;20874;-90
2022/06/16 05:50:33;;;;;;;2.60;2.40;;;24.20;58.10;;;;;;4977425;28;20409;-90
2022/06/16 05:53:05;;;;;;;2.33;2.07;;;24.20;58.10;;;;;;4958942;28;20434;-89
2022/06/16 05:55:39;;;;;;;4.20;3.00;;;24.20;58.10;;;;;;4945799;28;20446;-88
2022/06/16 05:58:08;;;;;;;3.93;2.40;;;24.20;58.20;;;;;;4943409;28;20523;-90
2022/06/16 06:00:48;;;;;;;3.60;2.63;;;24.20;58.10;;;;;;4965364;28;20491;-88
2022/06/16 06:03:20;;;;;;;4.47;2.73;;;24.20;58.10;;;;;;4975325;28;20665;-87
2022/06/16 06:05:46;;;;;;;3.47;2.57;;;24.20;58.10;;;;;;4946910;28;20461;-88
2022/06/16 06:16:44;;;;;;;4.60;2.27;;;24.10;58.00;;;;;;4959098;28;20501;-88
2022/06/16 06:19:24;;;;;;;2.30;1.97;;;24.10;58.00;;;;;;4959191;28;20804;-89
2022/06/16 06:22:06;;;;;;;2.27;2.07;;;24.10;58.00;;;;;;4955802;28;20470;-88
2022/06/16 06:24:36;;;;;;;3.30;2.13;;;24.10;58.10;;;;;;4974813;28;20505;-85
2022/06/16 06:27:29;;;;;;;3.23;2.37;;;24.00;58.00;;;;;;4959334;28;20433;-87
2022/06/16 06:29:58;;;;;;;2.80;2.13;;;24.00;58.00;;;;;;4959208;28;20496;-86
2022/06/16 06:32:26;;;;;;;2.67;2.47;;;24.10;58.00;;;;;;4942951;28;20481;-89
2022/06/16 06:34:56;;;;;;;3.33;2.53;;;24.00;58.00;;;;;;4979027;28;20445;-88
2022/06/16 06:37:25;;;;;;;3.20;2.60;;;24.00;58.00;;;;;;4963050;28;20420;-88
2022/06/16 06:39:52;;;;;;;4.20;2.20;;;24.00;58.00;;;;;;4947415;28;20457;-89
2022/06/16 06:42:18;;;;;;;3.27;2.20;;;24.00;58.10;;;;;;4979791;28;20461;-89
2022/06/16 06:44:44;;;;;;;3.43;2.30;;;24.00;58.20;;;;;;4957895;28;20426;-89
2022/06/16 06:47:18;;;;;;;2.80;2.00;;;24.00;58.10;;;;;;4980305;28;20441;-90
2022/06/16 06:49:48;;;;;;;2.70;2.50;;;24.00;58.10;;;;;;4979940;28;20428;-86
2022/06/16 06:52:17;;;;;;;3.00;2.30;;;24.00;58.20;;;;;;4953334;28;20627;-88
2022/06/16 06:54:46;;;;;;;3.53;1.80;;;24.00;58.30;;;;;;4951650;28;20428;-88
2022/06/16 06:57:14;;;;;;;2.80;2.30;;;24.00;58.30;;;;;;4998988;28;20436;-89
2022/06/16 06:59:40;;;;;;;2.40;2.00;;;24.00;58.30;;;;;;4997556;28;20429;-88
2022/06/16 07:02:09;;;;;;;3.93;2.23;;;24.00;58.40;;;;;;4998811;28;20456;-88
2022/06/16 07:04:38;;;;;;;2.43;2.17;;;24.00;58.30;;;;;;4977959;28;20775;-89
2022/06/16 07:07:04;;;;;;;3.60;2.40;;;24.00;58.30;;;;;;4986813;28;20472;-88
2022/06/16 07:09:34;;;;;;;3.07;2.17;;;24.00;58.40;;;;;;4971257;28;20442;-87
2022/06/16 07:12:00;;;;;;;2.60;2.30;;;24.00;58.40;;;;;;4984975;28;20453;-89
2022/06/16 07:14:30;;;;;;;2.67;2.33;;;24.00;58.50;;;;;;4996708;28;20421;-87
2022/06/16 07:16:59;;;;;;;2.90;1.90;;;24.00;58.60;;;;;;4978996;28;20917;-86
2022/06/16 07:19:29;;;;;;;2.27;2.00;;;24.00;58.70;;;;;;4946500;28;20426;-89
2022/06/16 07:21:55;;;;;;;2.70;2.20;;;24.00;58.70;;;;;;4982573;28;20558;-88
2022/06/16 07:24:23;;;;;;;2.30;2.10;;;24.00;58.80;;;;;;4962525;28;20526;-86
2022/06/16 07:26:51;;;;;;;4.70;2.50;;;24.00;58.60;;;;;;4979165;28;20429;-90
2022/06/16 07:29:19;;;;;;;2.20;2.00;;;24.00;58.60;;;;;;4961919;28;20449;-85
2022/06/16 07:31:47;;;;;;;2.73;2.13;;;24.00;58.70;;;;;;4962348;28;20418;-89
2022/06/16 07:34:16;;;;;;;2.53;2.33;;;24.00;58.70;;;;;;4946281;28;20442;-88
2022/06/16 07:36:44;;;;;;;2.47;2.20;;;24.10;58.80;;;;;;4962447;28;20438;-90
2022/06/16 07:39:10;;;;;;;3.47;2.10;;;24.00;58.70;;;;;;4984016;28;20429;-88
2022/06/16 07:41:36;;;;;;;3.40;2.10;;;24.10;58.80;;;;;;4962148;28;20504;-87
2022/06/16 07:44:04;;;;;;;2.57;2.00;;;24.10;58.70;;;;;;4961250;28;20438;-89
2022/06/16 07:46:33;;;;;;;2.80;2.00;;;24.10;58.70;;;;;;4962244;28;20541;-89
2022/06/16 07:49:02;;;;;;;2.97;2.43;;;24.10;58.60;;;;;;4945637;28;20951;-89
2022/06/16 07:51:33;;;;;;;4.50;1.90;;;24.10;58.60;;;;;;4986616;28;20453;-88
2022/06/16 07:54:04;;;;;;;2.40;2.03;;;24.10;58.60;;;;;;4956896;28;20465;-88
2022/06/16 07:56:32;;;;;;;2.50;2.10;;;24.10;58.60;;;;;;4997144;28;20498;-86
2022/06/16 07:58:58;;;;;;;2.03;1.67;;;24.10;58.60;;;;;;4964775;28;20460;-89
2022/06/16 08:01:24;;;;;;;2.43;1.87;;;24.20;58.70;;;;;;4979318;28;20496;-88
2022/06/16 08:03:50;;;;;;;2.37;1.60;;;24.10;58.60;;;;;;4978483;28;20446;-88
2022/06/16 08:06:18;;;;;;;4.60;1.90;;;24.20;58.70;;;;;;4965316;28;20460;-87
2022/06/16 08:08:45;;;;;;;2.20;1.97;;;24.20;58.70;;;;;;4961413;28;20360;-89
2022/06/16 08:13:58;;;;;;;2.67;2.00;;;24.20;58.70;;;;;;4971342;28;20540;-89
2022/06/16 08:16:29;;;;;;;3.20;1.70;;;24.20;58.70;;;;;;4964750;28;20499;-88
2022/06/16 08:18:58;;;;;;;2.20;2.00;;;24.20;58.60;;;;;;4955434;28;20783;-88
2022/06/16 08:21:26;;;;;;;2.60;1.97;;;24.30;58.60;;;;;;4961939;28;20418;-90
2022/06/16 08:23:52;;;;;;;2.07;1.80;;;24.30;58.60;;;;;;4978140;28;20453;-89
2022/06/16 08:26:19;;;;;;;3.30;1.80;;;24.30;58.50;;;;;;4961337;28;20442;-87
2022/06/16 08:28:52;;;;;;;2.90;1.77;;;24.30;58.50;;;;;;4978161;28;20754;-90
2022/06/16 08:31:21;;;;;;;2.40;1.90;;;24.30;58.50;;;;;;4969813;28;20477;-88
2022/06/16 08:33:53;;;;;;;2.30;1.60;;;24.40;58.60;;;;;;4961710;28;20402;-89
2022/06/16 08:36:20;;;;;;;4.60;2.20;;;24.40;58.60;;;;;;4960905;28;20441;-91
2022/06/16 08:38:48;;;;;;;2.40;2.00;;;24.40;58.50;;;;;;4965177;28;20449;-90
2022/06/16 08:41:22;;;;;;;2.37;1.47;;;24.40;58.50;;;;;;4979906;28;21022;-90
2022/06/16 08:44:19;;;;;;;2.43;1.87;;;24.50;58.50;;;;;;4997385;28;20482;-88
2022/06/16 08:46:53;;;;;;;1.90;1.70;;;24.50;58.50;;;;;;4964304;28;20909;-89
2022/06/16 08:49:52;;;;;;;3.70;1.93;;;24.50;58.40;;;;;;4983364;28;20409;-88
2022/06/16 08:52:45;;;;;;;3.03;1.90;;;24.50;58.50;;;;;;4968326;28;20819;-86
2022/06/16 08:55:18;;;;;;;2.90;1.97;;;24.50;58.50;;;;;;4996905;28;20450;-91
2022/06/16 08:57:56;;;;;;;2.20;1.97;;;24.60;58.60;;;;;;4963877;28;20503;-87
2022/06/16 09:00:46;;;;;;;2.43;1.70;;;24.60;58.70;;;;;;4978208;28;21056;-90
2022/06/16 09:03:27;;;;;;;2.97;1.90;;;24.60;58.60;;;;;;4928637;28;20486;-89
2022/06/16 09:05:58;;;;;;;3.67;1.67;;;24.70;58.60;;;;;;4961349;28;20449;-90
2022/06/16 09:08:46;;;;;;;1.90;1.63;;;24.60;58.50;;;;;;4954271;28;20532;-90
2022/06/16 09:11:24;;;;;;;3.20;1.90;;;24.70;58.40;;;;;;4979889;28;20433;-89
2022/06/16 09:14:17;;;;;;;3.40;2.10;;;24.70;58.50;;;;;;4959681;28;20421;-89
2022/06/16 09:17:40;;;;;;;2.43;1.70;;;24.70;58.40;;;;;;4985196;28;20464;-90
2022/06/16 09:20:15;;;;;;;1.93;1.50;;;24.70;58.30;;;;;;4883401;29;20946;-88
2022/06/16 09:22:52;;;;;;;2.53;1.60;;;24.80;58.20;;;;;;4902261;29;20960;-90
2022/06/16 09:25:51;;;;;;;1.93;1.60;;;24.80;58.20;;;;;;4902177;29;20532;-90
2022/06/16 09:28:28;;;;;;;2.20;1.60;;;24.80;58.20;;;;;;4907713;29;20469;-90
2022/06/16 09:31:06;;;;;;;1.67;1.53;;;24.80;58.10;;;;;;4913199;29;20511;-89
2022/06/16 09:33:47;;;;;;;2.37;1.73;;;24.90;58.20;;;;;;4897153;29;20456;-90
2022/06/16 09:36:26;;;;;;;5.07;2.00;;;24.90;58.40;;;;;;4894985;29;20429;-89
2022/06/16 09:39:06;;;;;;;1.53;1.43;;;24.90;58.00;;;;;;4909374;29;20544;-89
2022/06/16 09:44:36;;;;;;;1.90;1.70;;;25.00;57.90;;;;;;4901999;29;20528;-90
2022/06/16 09:47:13;;;;;;;2.37;1.60;;;25.00;57.50;;;;;;4911018;29;20514;-89
2022/06/16 09:50:05;;;;;;;1.90;1.70;;;25.00;57.30;;;;;;4910966;28;20414;-87
2022/06/16 09:52:49;;;;;;;2.30;1.33;;;25.10;57.90;;;;;;4994436;28;20925;-90
2022/06/16 09:55:43;;;;;;;2.23;1.60;;;25.10;57.40;;;;;;4979406;28;20444;-88
2022/06/16 09:58:38;;;;;;;3.30;1.40;;;25.20;57.30;;;;;;4963782;28;20444;-86
2022/06/16 10:01:08;;;;;;;2.57;1.50;;;25.20;57.10;;;;;;4987865;28;20422;-88
2022/06/16 10:03:50;;;;;;;1.97;1.57;;;25.20;57.10;;;;;;4969193;28;20477;-89
2022/06/16 10:06:35;;;;;;;1.57;1.47;;;25.20;56.90;;;;;;4976115;28;20899;-91
2022/06/16 10:09:27;;;;;;;1.50;1.40;;;25.30;57.00;;;;;;4979417;28;20769;-91
2022/06/16 10:12:28;;;;;;;1.90;1.37;;;25.30;56.90;;;;;;4960100;28;20426;-92
2022/06/16 10:15:07;;;;;;;1.90;1.50;;;25.40;56.80;;;;;;4925841;28;20529;-89
2022/06/16 10:17:35;;;;;;;1.47;1.23;;;25.40;56.80;;;;;;4964125;28;20429;-90
2022/06/16 10:20:05;;;;;;;1.80;1.40;;;25.40;56.60;;;;;;4996325;28;20428;-90
2022/06/16 10:22:39;;;;;;;2.73;1.80;;;25.50;56.70;;;;;;4973993;28;20508;-90
2022/06/16 10:25:09;;;;;;;2.23;1.20;;;25.50;56.70;;;;;;4943945;28;20874;-89
2022/06/16 10:27:45;;;;;;;2.40;1.33;;;25.60;56.60;;;;;;4963328;28;20538;-91
2022/06/16 10:30:24;;;;;;;2.17;1.40;;;25.60;56.60;;;;;;4995745;28;20436;-86
2022/06/16 10:33:17;;;;;;;1.50;1.40;;;25.60;56.60;;;;;;4994314;28;20432;-90
2022/06/16 10:36:10;;;;;;;1.50;1.40;;;25.70;56.60;;;;;;4978857;28;20490;-90
2022/06/16 10:38:41;;;;;;;1.40;1.30;;;25.70;56.60;;;;;;4966417;28;20780;-90
2022/06/16 10:41:33;;;;;;;3.27;1.47;;;25.70;56.60;;;;;;4959278;28;20454;-88
2022/06/16 10:44:02;;;;;;;1.40;1.30;;;25.80;56.60;;;;;;4959440;28;20410;-89
2022/06/16 10:46:34;;;;;;;2.20;1.30;;;25.80;56.60;;;;;;4976555;28;20469;-92
2022/06/16 10:49:16;;;;;;;1.50;1.40;;;25.80;56.50;;;;;;4960080;28;20445;-90
2022/06/16 10:52:04;;;;;;;1.90;1.73;;;25.90;56.60;;;;;;4978607;28;20406;-92
2022/06/16 10:54:32;;;;;;;2.23;1.50;;;25.90;56.50;;;;;;4962588;28;20561;-89
2022/06/16 10:57:13;;;;;;;1.83;1.50;;;26.00;56.50;;;;;;4949295;28;20929;-93
2022/06/16 10:59:46;;;;;;;1.40;1.30;;;26.00;56.30;;;;;;4977783;28;20439;-90
2022/06/16 11:02:22;;;;;;;3.53;1.67;;;26.00;56.30;;;;;;4981879;28;20613;-86
2022/06/16 11:04:58;;;;;;;2.53;1.70;;;26.10;50.80;;;;;;4977823;28;20819;-86
2022/06/16 11:07:27;;;;;;;2.20;1.80;;;26.00;51.60;;;;;;4974986;28;20455;-87
2022/06/16 11:10:03;;;;;;;3.10;1.80;;;26.00;52.00;;;;;;4962188;28;20993;-87
2022/06/16 11:13:19;;;;;;;3.00;2.10;;;25.90;50.60;;;;;;4962147;28;20783;-88
2022/06/16 11:15:53;;;;;;;3.17;1.77;;;25.90;50.50;;;;;;4974661;28;20471;-88
2022/06/16 11:18:24;;;;;;;3.00;1.50;;;25.90;50.80;;;;;;4967118;28;20479;-92
2022/06/16 11:20:57;;;;;;;4.73;2.47;;;25.90;51.50;;;;;;4985132;28;20451;-88
2022/06/16 11:23:41;;;;;;;2.17;1.50;;;25.80;51.30;;;;;;4969032;28;20458;-96
2022/06/16 11:26:35;;;;;;;1.60;1.50;;;25.80;50.60;;;;;;5003708;28;20483;-91
2022/06/16 11:29:24;;;;;;;2.10;1.60;;;25.80;51.00;;;;;;4982801;28;20458;-87
2022/06/16 11:32:22;;;;;;;3.47;2.10;;;25.70;52.00;;;;;;4973052;28;20425;-89
2022/06/16 11:34:48;;;;;;;4.97;2.20;;;25.80;50.90;;;;;;4973514;28;20432;-90
2022/06/16 11:37:47;;;;;;;2.10;1.90;;;25.90;51.10;;;;;;4992701;28;20623;-93
2022/06/16 11:40:23;;;;;;;2.63;1.87;;;25.80;51.00;;;;;;4978547;28;20412;-88
2022/06/16 11:43:04;;;;;;;3.13;2.00;;;25.80;51.20;;;;;;4973799;28;20499;-91
2022/06/16 11:45:44;;;;;;;3.73;1.90;;;25.80;51.10;;;;;;4980517;28;20487;-94
2022/06/16 11:48:37;;;;;;;2.37;1.90;;;25.70;50.00;;;;;;4963294;28;20441;-89
2022/06/16 11:51:15;;;;;;;2.60;1.83;;;25.70;50.20;;;;;;4974780;28;20451;-95
2022/06/16 11:54:24;;;;;;;3.73;2.23;;;25.80;50.90;;;;;;4979787;28;20433;-96
2022/06/16 11:57:02;;;;;;;2.73;1.90;;;25.80;51.10;;;;;;4990643;28;20437;-96
2022/06/16 11:59:33;;;;;;;2.33;1.80;;;25.80;51.70;;;;;;4953956;28;20441;-93
2022/06/16 12:02:35;;;;;;;2.77;1.77;;;25.90;52.40;;;;;;4964401;28;20559;-90
2022/06/16 12:05:22;;;;;;;2.67;1.77;;;25.90;51.40;;;;;;4947098;28;20468;-89
2022/06/16 12:08:17;;;;;;;3.70;2.20;;;26.00;50.70;;;;;;4978260;28;20446;-92
2022/06/16 12:11:04;;;;;;;2.97;2.00;;;26.00;51.90;;;;;;4938918;28;21093;-91
2022/06/16 12:14:08;;;;;;;2.27;1.93;;;26.10;50.70;;;;;;4946877;28;20465;-92
2022/06/16 12:16:52;;;;;;;2.27;2.07;;;26.20;50.50;;;;;;4921885;29;20786;-87
2022/06/16 12:19:42;;;;;;;2.40;2.20;;;26.20;50.10;;;;;;4938163;29;20444;-96
2022/06/16 12:22:26;;;;;;;5.90;2.37;;;26.10;50.40;;;;;;4962192;28;20459;-93
2022/06/16 12:25:03;;;;;;;2.33;2.13;;;26.10;50.20;;;;;;4978746;28;20465;-95
2022/06/16 12:27:32;;;;;;;3.80;2.37;;;26.10;51.20;;;;;;4977835;28;20433;-94
2022/06/16 12:30:12;;;;;;;3.47;2.17;;;26.20;51.20;;;;;;4964690;28;20746;-84
2022/06/16 12:32:57;;;;;;;5.67;2.00;;;26.20;51.10;;;;;;4996879;28;20447;-94
2022/06/16 12:35:50;;;;;;;1.70;1.53;;;26.40;50.90;;;;;;4961419;28;20422;-87
2022/06/16 12:38:25;;;;;;;3.30;1.77;;;26.40;50.60;;;;;;4962729;28;20768;-91
2022/06/16 12:41:17;;;;;;;2.27;2.07;;;26.40;50.00;;;;;;4972335;28;20437;-92
2022/06/16 12:43:54;;;;;;;2.70;2.10;;;26.40;50.20;;;;;;4987218;28;20963;-93
2022/06/16 12:46:31;;;;;;;8.83;1.87;;;26.50;50.30;;;;;;4972071;28;20418;-91
2022/06/16 12:49:12;;;;;;;3.40;2.23;;;26.60;50.60;;;;;;4959963;28;20416;-87
2022/06/16 12:51:49;;;;;;;3.20;2.13;;;26.60;50.10;;;;;;4994199;28;20421;-88
2022/06/16 12:54:26;;;;;;;2.17;1.97;;;26.50;49.40;;;;;;4974117;28;20425;-91
2022/06/16 12:57:01;;;;;;;2.70;1.93;;;26.50;49.60;;;;;;4964968;28;20448;-92
2022/06/16 12:59:35;;;;;;;2.57;1.90;;;26.60;48.80;;;;;;4990406;28;20429;-95
2022/06/16 13:02:04;;;;;;;2.53;2.10;;;26.60;49.30;;;;;;4977156;28;20472;-93
2022/06/16 13:04:34;;;;;;;2.50;2.20;;;26.70;49.60;;;;;;4961006;28;20492;-90
2022/06/16 13:07:08;;;;;;;5.73;2.00;;;26.80;49.30;;;;;;4967506;28;20808;-94
2022/06/16 13:09:39;;;;;;;2.43;2.13;;;26.80;48.80;;;;;;4979297;28;20413;-91
2022/06/16 13:12:14;;;;;;;1.97;1.70;;;26.80;49.50;;;;;;4996460;28;20602;-91
2022/06/16 13:15:12;;;;;;;3.37;2.20;;;26.90;49.90;;;;;;4981820;28;20418;-95
2022/06/16 13:17:54;;;;;;;2.50;2.00;;;27.00;50.50;;;;;;4969325;28;20479;-96
2022/06/16 13:20:27;;;;;;;2.23;2.03;;;27.00;50.90;;;;;;4951991;28;20458;-95
2022/06/16 13:22:56;;;;;;;2.90;1.60;;;27.10;51.20;;;;;;4979588;28;20453;-96
2022/06/16 13:25:50;;;;;;;2.73;2.03;;;27.20;51.20;;;;;;4988426;28;20460;-96
2022/06/16 13:28:29;;;;;;;1.97;1.60;;;27.30;51.40;;;;;;4979463;28;20429;-89
2022/06/16 13:31:28;;;;;;;3.13;2.27;;;27.40;51.50;;;;;;4962627;28;20527;-87
2022/06/16 13:33:54;;;;;;;2.57;2.37;;;27.50;51.70;;;;;;4977562;28;20464;-89
2022/06/16 13:36:23;;;;;;;2.27;2.07;;;27.50;51.70;;;;;;4989491;28;20414;-93
2022/06/16 13:38:56;;;;;;;2.37;2.00;;;27.60;51.80;;;;;;4957956;28;20190;-93
2022/06/16 13:41:30;;;;;;;2.67;2.47;;;27.60;51.80;;;;;;4993055;28;20476;-91
2022/06/16 13:44:18;;;;;;;4.67;2.07;;;27.70;51.90;;;;;;4960545;28;20441;-95
2022/06/16 13:46:56;;;;;;;3.00;2.43;;;27.70;51.80;;;;;;4950945;28;20432;-93
2022/06/16 13:49:32;;;;;;;4.40;2.30;;;27.80;51.80;;;;;;4961773;28;20470;-95
2022/06/16 13:52:13;;;;;;;4.10;2.00;;;27.80;51.90;;;;;;4956417;28;20421;-95
2022/06/16 13:54:42;;;;;;;3.37;2.50;;;27.90;51.90;;;;;;4964423;28;20459;-96
2022/06/16 13:57:29;;;;;;;5.03;2.20;;;27.90;51.90;;;;;;4963788;28;20453;-94
2022/06/16 14:00:03;;;;;;;4.57;2.53;;;28.00;52.20;;;;;;4947922;28;20414;-96
2022/06/16 14:03:02;;;;;;;2.63;1.83;;;28.00;52.20;;;;;;4980749;28;20484;-96
2022/06/16 14:05:31;;;;;;;2.20;2.00;;;28.10;52.30;;;;;;4947735;28;20445;-96